Time;durP1;ratioP1;P1;durP2;ratioP2;P2;SDS_P1;SDS_P2;PMS_P1;PMS_P2;Temp;Humidity;BMP_temperature;BMP_pressure;BME280_temperature;BME280_humidity;BME280_pressure;Samples;Min_cycle;Max_cycle;Signal;HPM_P1;HPM_P2
2022/10/13 00:01:07;;;;;;;416.80;196.57;;;;;;;;;;4981722;28;20220;-53
2022/10/13 00:03:33;;;;;;;296.27;147.10;;;;;;;;;;4983293;28;20219;-55
2022/10/13 00:05:59;;;;;;;569.07;280.00;;;;;;;;;;4970574;28;20221;-52
2022/10/13 00:08:25;;;;;;;430.80;205.47;;;;;;;;;;4969531;28;20178;-52
2022/10/13 00:10:51;;;;;;;371.70;181.70;;;;;;;;;;4973248;28;20565;-53
2022/10/13 00:13:18;;;;;;;466.80;228.17;;;;;;;;;;4964321;28;20228;-53
2022/10/13 00:15:45;;;;;;;393.40;190.35;;;;;;;;;;4951691;28;20606;-53
2022/10/13 00:18:12;;;;;;;428.73;210.87;;;;;;;;;;4945370;28;20251;-53
2022/10/13 00:20:42;;;;;;;394.20;190.93;;;;;;;;;;4953319;28;20835;-54
2022/10/13 00:23:08;;;;;;;310.13;147.47;;;;;;;;;;4977306;28;20213;-52
2022/10/13 00:25:34;;;;;;;431.23;209.83;;;;;;;;;;4977093;28;20221;-53
2022/10/13 00:28:00;;;;;;;436.33;212.10;;;;;;;;;;4974494;28;20221;-54
2022/10/13 00:30:26;;;;;;;488.63;226.87;;;;;;;;;;4973442;28;21345;-52
2022/10/13 00:32:51;;;;;;;413.13;195.87;;;;;;;;;;4964213;28;20221;-52
2022/10/13 00:35:17;;;;;;;348.13;174.57;;;;;;;;;;4971760;28;20208;-52
2022/10/13 00:37:43;;;;;;;341.97;168.20;;;;;;;;;;4977596;28;20382;-53
2022/10/13 00:40:09;;;;;;;425.83;207.07;;;;;;;;;;4967436;28;22678;-53
2022/10/13 00:42:36;;;;;;;362.80;178.70;;;;;;;;;;4975475;28;20268;-53
2022/10/13 00:45:04;;;;;;;415.40;195.30;;;;;;;;;;4990122;28;20611;-54
2022/10/13 00:47:34;;;;;;;367.27;180.63;;;;;;;;;;4989017;28;20224;-54
2022/10/13 00:50:01;;;;;;;265.13;128.77;;;;;;;;;;4988488;28;20193;-54
2022/10/13 00:52:28;;;;;;;325.63;158.37;;;;;;;;;;4991678;28;20217;-54
2022/10/13 00:54:55;;;;;;;400.73;184.30;;;;;;;;;;4996312;28;20224;-54
2022/10/13 00:57:21;;;;;;;355.70;166.70;;;;;;;;;;4996300;28;20521;-54
2022/10/13 00:59:47;;;;;;;263.70;132.40;;;;;;;;;;4991402;28;20235;-54
2022/10/13 01:02:14;;;;;;;402.83;188.27;;;;;;;;;;4987994;28;20624;-54
2022/10/13 01:04:42;;;;;;;350.03;173.67;;;;;;;;;;4988803;28;20200;-54
2022/10/13 01:07:08;;;;;;;358.40;170.07;;;;;;;;;;5019036;28;20218;-54
2022/10/13 01:09:37;;;;;;;431.47;207.57;;;;;;;;;;4990669;28;20209;-54
2022/10/13 01:12:15;;;;;;;321.27;155.33;;;;;;;;;;4995843;28;20389;-54
2022/10/13 01:14:46;;;;;;;264.87;130.93;;;;;;;;;;4992737;28;20213;-55
2022/10/13 01:17:22;;;;;;;316.90;155.37;;;;;;;;;;4991585;28;20197;-54
2022/10/13 01:20:09;;;;;;;315.73;153.80;;;;;;;;;;4995140;28;20291;-54
2022/10/13 01:22:43;;;;;;;390.23;180.37;;;;;;;;;;4994058;28;20629;-54
2022/10/13 01:25:18;;;;;;;351.47;167.67;;;;;;;;;;4989241;28;20719;-54
2022/10/13 01:27:58;;;;;;;243.43;124.60;;;;;;;;;;4995159;28;20307;-54
2022/10/13 01:30:24;;;;;;;362.30;179.13;;;;;;;;;;5000607;28;20212;-54
2022/10/13 01:33:09;;;;;;;395.77;179.47;;;;;;;;;;4995250;28;20239;-54
2022/10/13 01:35:40;;;;;;;370.30;169.93;;;;;;;;;;4995243;28;20232;-54
2022/10/13 01:38:06;;;;;;;183.27;104.97;;;;;;;;;;5000947;28;20181;-54
2022/10/13 01:40:50;;;;;;;396.77;189.77;;;;;;;;;;4990617;28;20219;-54
2022/10/13 01:43:21;;;;;;;233.83;125.27;;;;;;;;;;4996059;28;20217;-54
2022/10/13 01:46:05;;;;;;;328.73;163.30;;;;;;;;;;4992877;28;20216;-54
2022/10/13 01:48:32;;;;;;;279.50;139.77;;;;;;;;;;4996996;28;20625;-54
2022/10/13 01:50:59;;;;;;;399.53;192.33;;;;;;;;;;4995488;28;20255;-54
2022/10/13 01:53:25;;;;;;;260.87;136.10;;;;;;;;;;4994404;28;20186;-54
2022/10/13 01:55:52;;;;;;;286.63;140.67;;;;;;;;;;4997859;28;20212;-54
2022/10/13 01:58:18;;;;;;;314.27;153.57;;;;;;;;;;4995545;28;20218;-54
2022/10/13 02:00:51;;;;;;;331.03;160.43;;;;;;;;;;4996753;28;20232;-57
2022/10/13 02:03:20;;;;;;;435.13;202.60;;;;;;;;;;4993168;28;20214;-54
2022/10/13 02:05:48;;;;;;;423.57;197.30;;;;;;;;;;4996503;28;20248;-54
2022/10/13 02:08:27;;;;;;;310.60;153.90;;;;;;;;;;4997965;28;20200;-54
2022/10/13 02:10:58;;;;;;;219.43;117.60;;;;;;;;;;5003701;28;20173;-54
2022/10/13 02:13:26;;;;;;;284.33;139.90;;;;;;;;;;5000399;28;20217;-54
2022/10/13 02:15:54;;;;;;;274.37;138.07;;;;;;;;;;4994587;28;20278;-54
2022/10/13 02:18:22;;;;;;;370.40;180.23;;;;;;;;;;4994211;28;20219;-54
2022/10/13 02:20:49;;;;;;;221.57;117.83;;;;;;;;;;4996159;28;20559;-54
2022/10/13 02:23:16;;;;;;;307.03;154.97;;;;;;;;;;5023688;28;20185;-54
2022/10/13 02:25:43;;;;;;;198.33;112.40;;;;;;;;;;4992755;28;20751;-54
2022/10/13 02:28:09;;;;;;;320.13;163.00;;;;;;;;;;4994609;28;20365;-54
2022/10/13 02:30:38;;;;;;;327.53;153.87;;;;;;;;;;4997829;28;20521;-54
2022/10/13 02:33:04;;;;;;;427.57;189.43;;;;;;;;;;4996765;28;20667;-54
2022/10/13 02:35:31;;;;;;;370.13;167.50;;;;;;;;;;4996662;28;20228;-54
2022/10/13 02:37:57;;;;;;;371.67;169.90;;;;;;;;;;4995456;28;20199;-54
2022/10/13 02:40:23;;;;;;;514.43;238.13;;;;;;;;;;4994845;28;20772;-54
2022/10/13 02:42:49;;;;;;;384.00;178.00;;;;;;;;;;5022724;28;20224;-54
2022/10/13 02:45:15;;;;;;;406.07;185.33;;;;;;;;;;4993294;28;20573;-54
2022/10/13 02:47:41;;;;;;;365.73;169.20;;;;;;;;;;4994302;28;20304;-54
2022/10/13 02:50:08;;;;;;;422.90;183.33;;;;;;;;;;4994252;28;20193;-54
2022/10/13 02:52:34;;;;;;;254.03;121.90;;;;;;;;;;4990376;28;20217;-54
2022/10/13 02:54:59;;;;;;;463.53;205.63;;;;;;;;;;4991850;28;20224;-54
2022/10/13 02:57:25;;;;;;;518.93;224.43;;;;;;;;;;4994723;28;20219;-54
2022/10/13 02:59:51;;;;;;;311.17;141.83;;;;;;;;;;4999686;28;20231;-54
2022/10/13 03:02:18;;;;;;;478.73;209.53;;;;;;;;;;4991241;28;20557;-54
2022/10/13 03:04:44;;;;;;;388.50;172.43;;;;;;;;;;4995594;28;20200;-54
2022/10/13 03:07:10;;;;;;;387.97;176.57;;;;;;;;;;4994378;28;20708;-54
2022/10/13 03:09:36;;;;;;;358.47;162.03;;;;;;;;;;4991252;28;20263;-54
2022/10/13 03:12:02;;;;;;;340.07;152.07;;;;;;;;;;4989694;28;20693;-54
2022/10/13 03:14:28;;;;;;;483.80;213.00;;;;;;;;;;4994292;28;20220;-54
2022/10/13 03:16:54;;;;;;;397.23;178.80;;;;;;;;;;4990969;28;20560;-54
2022/10/13 03:19:20;;;;;;;427.97;199.20;;;;;;;;;;4991505;28;20339;-54
2022/10/13 03:21:46;;;;;;;347.93;158.33;;;;;;;;;;4992908;28;20784;-54
2022/10/13 03:24:12;;;;;;;410.17;190.10;;;;;;;;;;4992375;28;20244;-54
2022/10/13 03:26:38;;;;;;;375.80;167.63;;;;;;;;;;4989288;28;20276;-54
2022/10/13 03:29:04;;;;;;;455.20;200.93;;;;;;;;;;4997628;28;20186;-54
2022/10/13 03:31:30;;;;;;;335.43;153.93;;;;;;;;;;4999254;28;20713;-54
2022/10/13 03:33:56;;;;;;;479.20;213.00;;;;;;;;;;4975937;28;20220;-54
2022/10/13 03:36:22;;;;;;;477.73;224.17;;;;;;;;;;4975803;28;20753;-54
2022/10/13 03:38:48;;;;;;;435.07;207.90;;;;;;;;;;4989539;28;20488;-54
2022/10/13 03:41:15;;;;;;;211.57;97.13;;;;;;;;;;4990314;28;20202;-54
2022/10/13 03:43:42;;;;;;;240.20;105.73;;;;;;;;;;4997938;28;20177;-55
2022/10/13 03:46:09;;;;;;;206.33;80.60;;;;;;;;;;4971489;28;20250;-55
2022/10/13 03:48:35;;;;;;;120.00;56.83;;;;;;;;;;4971260;28;20244;-54
2022/10/13 03:51:08;;;;;;;233.23;87.23;;;;;;;;;;4977913;28;20209;-55
2022/10/13 03:53:35;;;;;;;267.33;95.57;;;;;;;;;;4989599;28;20224;-55
2022/10/13 03:56:01;;;;;;;162.57;64.70;;;;;;;;;;5020391;28;20736;-55
2022/10/13 03:58:27;;;;;;;275.63;94.23;;;;;;;;;;4974536;28;20218;-55
2022/10/13 04:00:53;;;;;;;259.70;97.77;;;;;;;;;;4972593;28;20631;-54
2022/10/13 04:03:20;;;;;;;176.37;64.33;;;;;;;;;;4981837;28;20237;-55
2022/10/13 04:05:46;;;;;;;127.23;51.03;;;;;;;;;;4993109;28;20253;-54
2022/10/13 04:08:12;;;;;;;130.80;55.30;;;;;;;;;;4994208;28;20598;-55
2022/10/13 04:10:39;;;;;;;219.00;82.53;;;;;;;;;;4993416;28;20235;-54
2022/10/13 04:13:05;;;;;;;244.10;88.00;;;;;;;;;;4989227;28;20300;-55
2022/10/13 04:15:36;;;;;;;275.17;94.37;;;;;;;;;;4980970;28;20233;-54
2022/10/13 04:18:02;;;;;;;181.03;69.50;;;;;;;;;;4982646;28;20307;-54
2022/10/13 04:20:28;;;;;;;186.63;67.77;;;;;;;;;;4996508;28;20315;-54
2022/10/13 04:22:54;;;;;;;205.03;72.70;;;;;;;;;;4991872;28;20178;-55
2022/10/13 04:25:19;;;;;;;247.70;90.50;;;;;;;;;;5010657;28;20217;-54
2022/10/13 04:27:47;;;;;;;140.30;52.23;;;;;;;;;;4977418;28;20399;-54
2022/10/13 04:30:13;;;;;;;266.83;97.10;;;;;;;;;;4968633;28;20213;-54
2022/10/13 04:32:39;;;;;;;278.10;93.57;;;;;;;;;;4972312;28;20306;-55
2022/10/13 04:35:05;;;;;;;268.43;87.13;;;;;;;;;;4975019;28;20377;-54
2022/10/13 04:37:31;;;;;;;130.13;49.53;;;;;;;;;;4974594;28;20225;-54
2022/10/13 04:39:57;;;;;;;239.67;85.10;;;;;;;;;;4968439;28;20230;-54
2022/10/13 04:42:23;;;;;;;203.57;74.90;;;;;;;;;;4970559;28;20622;-54
2022/10/13 04:44:49;;;;;;;176.03;63.43;;;;;;;;;;4973852;28;20213;-55
2022/10/13 04:47:15;;;;;;;227.53;79.03;;;;;;;;;;4970513;28;20189;-54
2022/10/13 04:49:41;;;;;;;135.80;48.67;;;;;;;;;;4967998;28;20201;-54
2022/10/13 04:52:07;;;;;;;213.17;68.47;;;;;;;;;;4973732;28;20244;-55
2022/10/13 04:54:33;;;;;;;158.10;52.37;;;;;;;;;;4974560;28;20681;-55
2022/10/13 04:56:58;;;;;;;311.37;99.13;;;;;;;;;;4969622;28;23294;-55
2022/10/13 04:59:24;;;;;;;215.67;76.03;;;;;;;;;;4975222;28;20422;-55
2022/10/13 05:01:50;;;;;;;200.10;65.00;;;;;;;;;;4979675;28;20240;-54
2022/10/13 05:04:16;;;;;;;99.90;33.53;;;;;;;;;;4971118;28;20301;-54
2022/10/13 05:06:42;;;;;;;159.67;51.47;;;;;;;;;;4973202;28;20296;-55
2022/10/13 05:09:14;;;;;;;295.43;96.67;;;;;;;;;;4969478;28;20270;-55
2022/10/13 05:11:40;;;;;;;222.67;69.03;;;;;;;;;;4971477;28;20240;-55
2022/10/13 05:14:06;;;;;;;235.17;69.67;;;;;;;;;;4972774;28;20220;-54
2022/10/13 05:16:32;;;;;;;159.97;53.13;;;;;;;;;;4968354;28;20422;-54
2022/10/13 05:18:58;;;;;;;213.37;63.60;;;;;;;;;;4966991;28;20675;-54
2022/10/13 05:21:28;;;;;;;133.97;44.57;;;;;;;;;;4972725;28;20312;-54
2022/10/13 05:23:55;;;;;;;232.87;71.30;;;;;;;;;;4976097;28;20373;-55
2022/10/13 05:26:28;;;;;;;331.47;100.47;;;;;;;;;;4977818;28;20260;-56
2022/10/13 05:28:58;;;;;;;160.23;50.97;;;;;;;;;;4979299;28;20179;-56
2022/10/13 05:31:24;;;;;;;226.10;69.97;;;;;;;;;;4973679;28;20775;-56
2022/10/13 05:33:51;;;;;;;144.30;49.43;;;;;;;;;;4980262;28;20221;-56
2022/10/13 05:36:24;;;;;;;353.53;105.03;;;;;;;;;;4979495;28;20497;-55
2022/10/13 05:38:51;;;;;;;119.30;39.47;;;;;;;;;;4976177;28;20222;-56
2022/10/13 05:41:17;;;;;;;165.60;56.20;;;;;;;;;;4984729;28;20260;-55
2022/10/13 05:43:43;;;;;;;169.30;52.30;;;;;;;;;;4989015;28;20551;-55
2022/10/13 05:46:09;;;;;;;205.33;64.70;;;;;;;;;;4983207;28;20255;-55
2022/10/13 05:48:36;;;;;;;185.90;61.07;;;;;;;;;;4976088;28;20614;-55
2022/10/13 05:51:04;;;;;;;223.53;73.77;;;;;;;;;;4985010;28;20364;-55
2022/10/13 05:53:32;;;;;;;246.23;71.47;;;;;;;;;;4978968;28;20213;-55
2022/10/13 05:56:05;;;;;;;53.20;24.73;;;;;;;;;;4978923;28;20281;-55
2022/10/13 05:58:36;;;;;;;127.93;40.10;;;;;;;;;;5013423;28;20276;-55
2022/10/13 06:01:04;;;;;;;113.40;37.37;;;;;;;;;;4986479;28;20220;-55
2022/10/13 06:03:30;;;;;;;331.07;99.23;;;;;;;;;;4980530;28;20772;-55
2022/10/13 06:05:57;;;;;;;132.50;47.83;;;;;;;;;;4976775;28;20296;-54
2022/10/13 06:08:23;;;;;;;305.43;94.70;;;;;;;;;;4959251;28;20213;-56
2022/10/13 06:10:49;;;;;;;81.07;41.50;;;;;;;;;;4971026;28;20214;-55
2022/10/13 06:13:15;;;;;;;229.67;76.53;;;;;;;;;;4966239;28;20225;-56
2022/10/13 06:15:41;;;;;;;261.77;93.77;;;;;;;;;;4963642;28;20293;-56
2022/10/13 06:18:10;;;;;;;266.13;87.67;;;;;;;;;;4924602;28;20221;-57
2022/10/13 06:20:37;;;;;;;184.73;71.83;;;;;;;;;;4946733;28;20222;-57
2022/10/13 06:23:03;;;;;;;219.13;78.53;;;;;;;;;;4939544;28;20205;-57
2022/10/13 06:25:29;;;;;;;321.53;120.80;;;;;;;;;;4957907;28;20918;-57
2022/10/13 06:28:01;;;;;;;185.50;71.43;;;;;;;;;;4954823;28;20706;-56
2022/10/13 06:30:28;;;;;;;333.53;120.60;;;;;;;;;;4965267;28;20248;-57
2022/10/13 06:32:54;;;;;;;285.93;106.17;;;;;;;;;;4988525;28;20213;-57
2022/10/13 06:35:22;;;;;;;178.00;65.87;;;;;;;;;;4980725;28;20679;-57
2022/10/13 06:37:48;;;;;;;104.40;48.63;;;;;;;;;;4992069;28;20213;-55
2022/10/13 06:40:14;;;;;;;206.67;77.80;;;;;;;;;;4970765;28;20269;-55
2022/10/13 06:42:40;;;;;;;277.60;97.33;;;;;;;;;;4970116;28;20460;-55
2022/10/13 06:45:06;;;;;;;132.70;56.20;;;;;;;;;;4967843;28;20793;-55
2022/10/13 06:47:32;;;;;;;375.13;143.83;;;;;;;;;;4960989;28;20265;-54
2022/10/13 06:49:58;;;;;;;222.17;89.67;;;;;;;;;;4957292;28;20267;-54
2022/10/13 06:52:24;;;;;;;158.93;65.40;;;;;;;;;;4960084;28;20212;-54
2022/10/13 06:54:50;;;;;;;75.80;46.00;;;;;;;;;;4959531;28;20338;-54
2022/10/13 06:57:16;;;;;;;137.17;58.03;;;;;;;;;;4966575;28;20220;-54
2022/10/13 06:59:43;;;;;;;309.60;112.40;;;;;;;;;;4963170;28;20269;-56
2022/10/13 07:02:09;;;;;;;211.57;89.97;;;;;;;;;;4967988;28;20196;-55
2022/10/13 07:04:35;;;;;;;265.70;118.73;;;;;;;;;;4986547;28;20229;-55
2022/10/13 07:07:01;;;;;;;180.23;80.37;;;;;;;;;;4988901;28;20217;-55
2022/10/13 07:09:27;;;;;;;228.67;98.50;;;;;;;;;;4982839;28;20559;-55
2022/10/13 07:11:53;;;;;;;191.50;85.33;;;;;;;;;;4993528;28;20705;-55
2022/10/13 07:14:19;;;;;;;210.37;94.33;;;;;;;;;;4990309;28;20180;-55
2022/10/13 07:16:47;;;;;;;188.67;93.33;;;;;;;;;;4969800;28;21490;-55
2022/10/13 07:19:13;;;;;;;298.30;126.33;;;;;;;;;;4968724;28;20249;-55
2022/10/13 07:21:39;;;;;;;248.00;121.47;;;;;;;;;;4966273;28;20217;-55
2022/10/13 07:24:05;;;;;;;230.67;105.23;;;;;;;;;;4999706;28;20221;-55
2022/10/13 07:26:32;;;;;;;223.83;102.33;;;;;;;;;;4969733;28;20233;-55
2022/10/13 07:28:58;;;;;;;282.93;120.73;;;;;;;;;;4975478;28;20432;-55
2022/10/13 07:31:25;;;;;;;232.53;112.70;;;;;;;;;;4971841;28;20714;-55
2022/10/13 07:33:51;;;;;;;179.00;86.47;;;;;;;;;;4974343;28;20241;-55
2022/10/13 07:36:17;;;;;;;180.67;88.67;;;;;;;;;;4972543;28;20269;-56
2022/10/13 07:38:43;;;;;;;215.43;105.20;;;;;;;;;;4965845;28;20705;-55
2022/10/13 07:41:10;;;;;;;348.03;150.73;;;;;;;;;;4959933;28;20202;-55
2022/10/13 07:43:37;;;;;;;251.87;124.53;;;;;;;;;;4967189;28;20224;-55
2022/10/13 07:46:03;;;;;;;320.20;143.10;;;;;;;;;;4978617;28;20221;-56
2022/10/13 07:48:29;;;;;;;119.93;73.03;;;;;;;;;;4981073;28;20217;-55
2022/10/13 07:50:55;;;;;;;130.53;77.13;;;;;;;;;;4977498;28;20261;-55
2022/10/13 07:53:21;;;;;;;79.83;66.33;;;;;;;;;;4986626;28;20181;-55
2022/10/13 07:55:47;;;;;;;272.67;129.30;;;;;;;;;;4984266;28;20197;-55
2022/10/13 07:58:14;;;;;;;338.67;160.07;;;;;;;;;;5006509;28;20330;-55
2022/10/13 08:00:40;;;;;;;193.17;99.27;;;;;;;;;;4976749;28;20726;-55
2022/10/13 08:03:06;;;;;;;328.93;147.43;;;;;;;;;;4984473;28;20230;-55
2022/10/13 08:05:31;;;;;;;125.97;83.47;;;;;;;;;;4978389;28;20625;-55
2022/10/13 08:07:57;;;;;;;181.23;99.80;;;;;;;;;;4969996;28;20684;-56
2022/10/13 08:10:23;;;;;;;155.37;90.40;;;;;;;;;;4979435;28;20209;-55
2022/10/13 08:12:49;;;;;;;181.97;101.10;;;;;;;;;;4979630;28;20272;-55
2022/10/13 08:15:15;;;;;;;315.50;148.90;;;;;;;;;;4980448;28;20225;-55
2022/10/13 08:17:41;;;;;;;135.03;90.97;;;;;;;;;;4979664;28;20319;-55
2022/10/13 08:20:08;;;;;;;296.77;153.73;;;;;;;;;;4975686;28;20207;-55
2022/10/13 08:22:34;;;;;;;90.70;74.33;;;;;;;;;;4983319;28;20228;-55
2022/10/13 08:25:00;;;;;;;273.77;136.53;;;;;;;;;;4980224;28;20205;-55
2022/10/13 08:27:27;;;;;;;282.37;132.97;;;;;;;;;;4985587;28;20584;-55
2022/10/13 08:29:53;;;;;;;251.37;126.07;;;;;;;;;;4990329;28;20273;-55
2022/10/13 08:32:20;;;;;;;228.63;113.03;;;;;;;;;;5011417;28;20181;-55
2022/10/13 08:34:46;;;;;;;187.17;99.43;;;;;;;;;;5007598;28;20285;-55
2022/10/13 08:37:13;;;;;;;375.87;166.20;;;;;;;;;;4975443;28;20281;-55
2022/10/13 08:39:39;;;;;;;103.63;75.27;;;;;;;;;;4975405;28;20755;-55
2022/10/13 08:42:13;;;;;;;285.83;126.23;;;;;;;;;;4985137;28;20895;-55
2022/10/13 08:44:40;;;;;;;189.40;104.90;;;;;;;;;;4979930;28;20315;-55
2022/10/13 08:47:12;;;;;;;228.33;118.73;;;;;;;;;;4981708;28;20716;-55
2022/10/13 08:49:39;;;;;;;115.77;83.87;;;;;;;;;;4981148;28;20224;-55
2022/10/13 08:52:05;;;;;;;259.50;123.73;;;;;;;;;;4988460;28;20377;-55
2022/10/13 08:54:32;;;;;;;346.10;169.50;;;;;;;;;;4978231;28;20733;-55
2022/10/13 08:56:58;;;;;;;153.80;94.37;;;;;;;;;;4979084;28;20240;-55
2022/10/13 08:59:24;;;;;;;360.47;178.90;;;;;;;;;;4981514;28;20657;-55
2022/10/13 09:01:53;;;;;;;132.50;98.33;;;;;;;;;;4979173;28;20276;-55
2022/10/13 09:04:31;;;;;;;210.50;126.43;;;;;;;;;;4986623;28;20849;-55
2022/10/13 09:07:02;;;;;;;162.00;110.53;;;;;;;;;;4983380;28;20316;-55
2022/10/13 09:09:28;;;;;;;393.10;234.43;;;;;;;;;;4980365;28;20562;-55
2022/10/13 09:11:54;;;;;;;349.33;180.83;;;;;;;;;;4977133;28;20225;-55
2022/10/13 09:14:26;;;;;;;278.00;156.63;;;;;;;;;;4982721;28;20181;-56
2022/10/13 09:16:53;;;;;;;262.07;145.47;;;;;;;;;;4986327;28;20594;-55
2022/10/13 09:19:30;;;;;;;302.20;162.33;;;;;;;;;;4986144;28;20632;-55
2022/10/13 09:21:57;;;;;;;394.23;194.40;;;;;;;;;;4995388;28;20296;-55
2022/10/13 09:24:25;;;;;;;292.63;160.90;;;;;;;;;;4996143;28;20225;-56
2022/10/13 09:27:02;;;;;;;211.10;129.83;;;;;;;;;;4997419;28;20217;-55
2022/10/13 09:29:28;;;;;;;214.93;131.40;;;;;;;;;;4994686;28;20231;-55
2022/10/13 09:32:07;;;;;;;375.87;197.40;;;;;;;;;;4988997;28;20427;-55
2022/10/13 09:34:33;;;;;;;219.00;140.17;;;;;;;;;;4992814;28;20216;-55
2022/10/13 09:36:59;;;;;;;390.37;186.73;;;;;;;;;;4996994;28;20224;-55
2022/10/13 09:39:25;;;;;;;158.00;115.87;;;;;;;;;;4994801;28;20240;-56
2022/10/13 09:41:52;;;;;;;199.00;127.37;;;;;;;;;;4995335;28;20228;-55
2022/10/13 09:44:26;;;;;;;177.10;124.17;;;;;;;;;;4993442;28;20196;-55
2022/10/13 09:46:54;;;;;;;294.57;157.50;;;;;;;;;;4997516;28;20770;-55
2022/10/13 09:49:39;;;;;;;429.97;213.97;;;;;;;;;;4992802;28;20606;-56
2022/10/13 09:52:12;;;;;;;384.67;199.87;;;;;;;;;;5015457;28;20213;-56
2022/10/13 09:54:45;;;;;;;273.10;153.00;;;;;;;;;;4994163;28;20216;-56
2022/10/13 09:57:20;;;;;;;416.20;207.57;;;;;;;;;;4991542;28;20218;-56
2022/10/13 09:59:50;;;;;;;281.23;159.17;;;;;;;;;;4997448;28;20205;-54
2022/10/13 10:02:28;;;;;;;350.27;192.17;;;;;;;;;;4991993;28;20281;-54
2022/10/13 10:04:56;;;;;;;207.80;123.83;;;;;;;;;;4997120;28;20216;-55
2022/10/13 10:07:25;;;;;;;466.63;229.97;;;;;;;;;;4991623;28;20505;-55
2022/10/13 10:09:54;;;;;;;355.03;188.67;;;;;;;;;;4989142;28;20221;-55
2022/10/13 10:12:22;;;;;;;354.37;186.13;;;;;;;;;;4988361;28;20232;-55
2022/10/13 10:14:49;;;;;;;451.00;226.43;;;;;;;;;;4981087;28;20225;-55
2022/10/13 10:17:20;;;;;;;364.07;177.90;;;;;;;;;;4988360;28;20273;-55
2022/10/13 10:19:58;;;;;;;442.23;210.63;;;;;;;;;;4986855;28;20233;-55
2022/10/13 10:22:47;;;;;;;478.17;233.30;;;;;;;;;;4989100;28;20209;-55
2022/10/13 10:25:28;;;;;;;426.37;207.10;;;;;;;;;;4981917;28;20228;-55
2022/10/13 10:28:13;;;;;;;390.03;187.90;;;;;;;;;;4983191;28;20217;-55
2022/10/13 10:30:51;;;;;;;411.27;196.60;;;;;;;;;;4979574;28;20209;-54
2022/10/13 10:33:19;;;;;;;577.83;282.50;;;;;;;;;;4971438;28;20717;-56
2022/10/13 10:35:52;;;;;;;388.13;195.63;;;;;;;;;;4979561;28;20313;-54
2022/10/13 10:38:17;;;;;;;354.63;175.50;;;;;;;;;;4986765;28;20264;-54
2022/10/13 10:41:03;;;;;;;417.63;215.47;;;;;;;;;;4977320;28;20693;-54
2022/10/13 10:43:39;;;;;;;421.23;212.97;;;;;;;;;;4971412;28;20228;-54
2022/10/13 10:46:11;;;;;;;456.17;214.47;;;;;;;;;;4975403;28;20624;-54
2022/10/13 10:48:38;;;;;;;556.60;273.97;;;;;;;;;;4971466;28;20213;-54
2022/10/13 10:51:08;;;;;;;483.43;247.57;;;;;;;;;;4978257;28;20209;-54
2022/10/13 10:53:54;;;;;;;585.30;298.10;;;;;;;;;;4970871;28;20218;-57
2022/10/13 10:56:38;;;;;;;374.23;193.23;;;;;;;;;;4977251;28;20852;-54
2022/10/13 10:59:18;;;;;;;346.67;176.50;;;;;;;;;;4976466;28;20320;-54
2022/10/13 11:02:06;;;;;;;415.17;207.37;;;;;;;;;;4978169;28;20229;-55
2022/10/13 11:04:34;;;;;;;494.10;248.50;;;;;;;;;;4973414;28;20216;-57
2022/10/13 11:07:00;;;;;;;495.10;252.60;;;;;;;;;;4963495;28;20216;-54
2022/10/13 11:09:41;;;;;;;530.37;270.10;;;;;;;;;;4972798;28;20208;-55
2022/10/13 11:12:19;;;;;;;489.10;237.73;;;;;;;;;;4981937;28;20380;-55
2022/10/13 11:14:54;;;;;;;584.30;289.13;;;;;;;;;;4976286;28;20274;-55
2022/10/13 11:17:30;;;;;;;440.50;218.50;;;;;;;;;;4976442;28;20192;-54
2022/10/13 11:19:56;;;;;;;349.60;175.83;;;;;;;;;;4973670;28;20281;-55
2022/10/13 11:22:24;;;;;;;489.23;253.13;;;;;;;;;;4983483;28;20248;-55
2022/10/13 11:24:55;;;;;;;501.47;252.33;;;;;;;;;;4977921;28;20386;-55
2022/10/13 11:27:25;;;;;;;424.13;209.80;;;;;;;;;;4982744;28;20275;-55
2022/10/13 11:29:53;;;;;;;528.60;274.27;;;;;;;;;;4969141;28;20213;-55
2022/10/13 11:34:57;;;;;;;467.37;240.37;;;;;;;;;;4969641;28;20651;-55
2022/10/13 11:37:24;;;;;;;414.00;214.73;;;;;;;;;;4964203;28;20394;-55
2022/10/13 11:39:58;;;;;;;427.13;222.60;;;;;;;;;;4973444;28;20248;-55
2022/10/13 11:42:37;;;;;;;504.58;254.65;;;;;;;;;;4985997;28;20206;-55
2022/10/13 11:45:13;;;;;;;537.13;268.23;;;;;;;;;;4997457;28;20704;-55
2022/10/13 11:47:57;;;;;;;430.42;221.73;;;;;;;;;;4974822;28;20212;-55
2022/10/13 11:50:43;;;;;;;565.50;292.40;;;;;;;;;;4973201;28;20658;-55
2022/10/13 11:53:23;;;;;;;341.35;172.32;;;;;;;;;;4974319;28;20440;-55
2022/10/13 11:55:49;;;;;;;404.65;203.52;;;;;;;;;;4966364;28;20279;-55
2022/10/13 11:58:17;;;;;;;442.63;231.47;;;;;;;;;;4980090;28;20229;-55
2022/10/13 12:01:05;;;;;;;527.30;263.47;;;;;;;;;;4971298;28;20233;-55
2022/10/13 12:03:32;;;;;;;451.00;233.43;;;;;;;;;;4965055;28;20575;-55
2022/10/13 12:06:03;;;;;;;481.13;240.70;;;;;;;;;;4985565;28;20498;-55
2022/10/13 12:08:32;;;;;;;510.60;258.63;;;;;;;;;;4983730;28;21315;-56
2022/10/13 12:11:01;;;;;;;559.83;283.75;;;;;;;;;;4971192;28;20767;-56
2022/10/13 12:13:28;;;;;;;524.93;255.90;;;;;;;;;;4976680;28;20354;-56
2022/10/13 12:15:59;;;;;;;530.47;268.50;;;;;;;;;;4973336;28;20212;-55
2022/10/13 12:18:32;;;;;;;401.77;210.00;;;;;;;;;;4974553;28;20236;-55
2022/10/13 12:20:59;;;;;;;551.50;273.83;;;;;;;;;;4970041;28;20783;-56
2022/10/13 12:23:25;;;;;;;516.80;258.03;;;;;;;;;;4976427;28;20372;-55
2022/10/13 12:25:56;;;;;;;524.53;259.23;;;;;;;;;;4987995;28;20214;-56
2022/10/13 12:28:24;;;;;;;468.77;252.83;;;;;;;;;;4979960;28;20848;-56
2022/10/13 12:30:51;;;;;;;389.92;209.45;;;;;;;;;;4973153;28;21014;-56
2022/10/13 12:33:22;;;;;;;406.55;219.18;;;;;;;;;;4959680;28;20216;-54
2022/10/13 12:35:48;;;;;;;452.70;233.38;;;;;;;;;;4977988;28;21165;-54
2022/10/13 12:38:18;;;;;;;569.58;300.23;;;;;;;;;;4968077;28;20654;-54
2022/10/13 12:40:44;;;;;;;511.42;267.85;;;;;;;;;;4972613;28;20220;-57
2022/10/13 12:43:15;;;;;;;508.42;254.20;;;;;;;;;;4973601;28;20229;-55
2022/10/13 12:45:42;;;;;;;471.88;249.45;;;;;;;;;;4971318;28;20209;-55
2022/10/13 12:48:27;;;;;;;531.28;283.23;;;;;;;;;;4969714;28;20216;-55
2022/10/13 12:50:53;;;;;;;565.60;295.97;;;;;;;;;;4963630;28;20220;-55
2022/10/13 12:53:26;;;;;;;489.40;255.88;;;;;;;;;;4971783;28;20678;-55
2022/10/13 12:55:54;;;;;;;388.83;216.27;;;;;;;;;;4977317;28;20239;-56
2022/10/13 12:58:30;;;;;;;444.27;235.65;;;;;;;;;;4978025;28;20241;-56
2022/10/13 13:00:59;;;;;;;543.97;280.13;;;;;;;;;;4963168;28;20668;-55
2022/10/13 13:03:27;;;;;;;539.10;286.30;;;;;;;;;;4979111;28;20276;-55
2022/10/13 13:06:06;;;;;;;479.90;255.90;;;;;;;;;;4967916;28;20228;-55
2022/10/13 13:08:32;;;;;;;430.92;221.30;;;;;;;;;;4970059;28;20311;-55
2022/10/13 13:11:00;;;;;;;362.30;192.55;;;;;;;;;;4982136;28;20208;-55
2022/10/13 13:13:26;;;;;;;458.08;230.73;;;;;;;;;;4983719;28;20280;-55
2022/10/13 13:15:53;;;;;;;510.58;262.48;;;;;;;;;;4987292;28;20530;-55
2022/10/13 13:18:35;;;;;;;535.80;291.25;;;;;;;;;;4976768;28;20279;-56
2022/10/13 13:21:03;;;;;;;577.78;298.75;;;;;;;;;;4974545;28;20796;-55
2022/10/13 13:23:33;;;;;;;489.77;254.77;;;;;;;;;;4975922;28;20232;-57
2022/10/13 13:26:02;;;;;;;563.53;292.55;;;;;;;;;;4975028;28;20445;-55
2022/10/13 13:28:29;;;;;;;583.35;300.38;;;;;;;;;;4981807;28;20221;-55
2022/10/13 13:30:55;;;;;;;551.35;293.88;;;;;;;;;;4976387;28;20217;-55
2022/10/13 13:33:21;;;;;;;503.27;287.58;;;;;;;;;;4967498;28;20771;-55
2022/10/13 13:35:47;;;;;;;500.65;262.15;;;;;;;;;;4967062;28;20228;-55
2022/10/13 13:38:13;;;;;;;486.55;248.85;;;;;;;;;;4974500;28;20686;-55
2022/10/13 13:40:40;;;;;;;470.85;257.85;;;;;;;;;;4974876;28;20559;-55
2022/10/13 13:43:06;;;;;;;522.72;294.83;;;;;;;;;;4972337;28;20225;-55
2022/10/13 13:45:33;;;;;;;491.85;282.70;;;;;;;;;;4962890;28;20274;-55
2022/10/13 13:47:59;;;;;;;413.55;247.07;;;;;;;;;;4975838;28;20886;-55
2022/10/13 13:50:27;;;;;;;500.63;291.85;;;;;;;;;;4968787;28;20618;-55
2022/10/13 13:52:53;;;;;;;531.03;293.50;;;;;;;;;;4977984;28;20274;-55
2022/10/13 13:55:19;;;;;;;478.08;267.88;;;;;;;;;;4976487;28;20248;-55
2022/10/13 13:57:45;;;;;;;498.88;288.75;;;;;;;;;;4976503;28;20589;-55
2022/10/13 14:00:12;;;;;;;487.55;278.23;;;;;;;;;;4974744;28;20229;-55
2022/10/13 14:02:38;;;;;;;415.33;232.48;;;;;;;;;;4986140;28;20585;-55
2022/10/13 14:05:06;;;;;;;375.95;216.85;;;;;;;;;;4988481;28;20830;-55
2022/10/13 14:07:32;;;;;;;413.42;235.93;;;;;;;;;;4980795;28;20450;-56